createdAt,value
2019-02-02T00:02:25.776Z,22.48
2019-02-02T00:04:54.354Z,17.73
2019-02-02T00:07:23.006Z,18.60
2019-02-02T00:09:51.597Z,20.72
2019-02-02T00:12:20.430Z,15.53
2019-02-02T00:14:49.020Z,20.90
2019-02-02T00:17:17.592Z,18.67
2019-02-02T00:19:46.200Z,21.45
2019-02-02T00:22:15.003Z,17.57
2019-02-02T00:24:43.646Z,20.52
2019-02-02T00:27:12.212Z,18.25
2019-02-02T00:29:41.039Z,18.60
2019-02-02T00:32:09.622Z,22.22
2019-02-02T00:34:38.192Z,18.65
2019-02-02T00:37:06.789Z,22.17
2019-02-02T00:39:35.421Z,19.75
2019-02-02T00:42:04.252Z,17.60
2019-02-02T00:44:32.822Z,21.02
2019-02-02T00:47:01.420Z,24.25
2019-02-02T00:49:29.989Z,58.33
2019-02-02T00:51:58.600Z,24.10
2019-02-02T00:54:27.182Z,19.77
2019-02-02T00:56:55.840Z,22.73
2019-02-02T00:59:24.536Z,22.00
2019-02-02T01:01:53.104Z,19.60
2019-02-02T01:04:21.671Z,20.43
2019-02-02T01:06:50.325Z,17.80
2019-02-02T01:09:26.379Z,20.10
2019-02-02T01:11:55.455Z,19.05
2019-02-02T01:14:24.036Z,20.88
2019-02-02T01:16:52.721Z,18.70
2019-02-02T01:19:21.298Z,19.92
2019-02-02T01:21:49.953Z,21.57
2019-02-02T01:24:18.558Z,21.48
2019-02-02T01:26:47.226Z,19.45
2019-02-02T01:29:15.884Z,17.40
2019-02-02T01:31:44.460Z,16.67
2019-02-02T01:34:13.037Z,23.62
2019-02-02T01:36:41.603Z,20.97
2019-02-02T01:39:10.192Z,19.87
2019-02-02T01:41:38.776Z,22.95
2019-02-02T01:44:07.763Z,21.75
2019-02-02T01:46:36.358Z,19.23
2019-02-02T01:49:05.228Z,22.22
2019-02-02T01:51:33.802Z,22.02
2019-02-02T01:54:02.397Z,19.12
2019-02-02T01:56:30.974Z,24.43
2019-02-02T01:58:59.583Z,22.13
2019-02-02T02:01:28.541Z,24.90
2019-02-02T02:03:57.146Z,22.10
2019-02-02T02:06:26.011Z,20.32
2019-02-02T02:08:54.597Z,22.02
2019-02-02T02:11:23.237Z,19.30
2019-02-02T02:13:52.062Z,18.35
2019-02-02T02:16:20.645Z,23.47
2019-02-02T02:18:49.212Z,21.60
2019-02-02T02:21:17.791Z,20.17
2019-02-02T02:23:46.596Z,21.62
2019-02-02T02:26:15.180Z,18.23
2019-02-02T02:28:43.985Z,22.17
2019-02-02T02:31:12.800Z,19.57
2019-02-02T02:33:41.372Z,18.07
2019-02-02T02:36:09.942Z,22.37
2019-02-02T02:38:38.531Z,22.20
2019-02-02T02:41:07.104Z,23.62
2019-02-02T02:43:35.667Z,20.72
2019-02-02T02:46:04.244Z,19.50
2019-02-02T02:48:32.815Z,21.07
2019-02-02T02:51:01.411Z,22.22
2019-02-02T02:53:29.978Z,20.12
2019-02-02T02:55:58.570Z,23.35
2019-02-02T02:58:27.141Z,20.50
2019-02-02T03:00:55.727Z,22.45
2019-02-02T03:03:24.360Z,22.10
2019-02-02T03:05:52.941Z,19.52
2019-02-02T03:08:21.595Z,22.07
2019-02-02T03:10:50.249Z,22.02
2019-02-02T03:13:18.838Z,21.00
2019-02-02T03:15:47.643Z,17.52
2019-02-02T03:18:16.295Z,20.65
2019-02-02T03:20:44.900Z,17.65
2019-02-02T03:23:13.482Z,22.10
2019-02-02T03:25:42.052Z,21.23
2019-02-02T03:28:10.647Z,20.77
2019-02-02T03:30:39.220Z,18.02
2019-02-02T03:33:07.814Z,20.23
2019-02-02T03:35:36.388Z,18.50
2019-02-02T03:38:05.387Z,20.43
2019-02-02T03:40:34.045Z,20.62
2019-02-02T03:43:02.740Z,21.70
2019-02-02T03:45:31.391Z,27.60
2019-02-02T03:47:59.966Z,27.32
2019-02-02T03:50:28.561Z,21.77
2019-02-02T03:52:57.141Z,18.20
2019-02-02T03:55:25.719Z,30.45
2019-02-02T03:57:54.316Z,23.45
2019-02-02T04:02:57.009Z,23.80
2019-02-02T04:05:27.249Z,24.53
2019-02-02T04:07:55.839Z,24.87
2019-02-02T04:10:24.432Z,26.35
2019-02-02T04:12:53.006Z,25.40
2019-02-02T04:15:21.740Z,28.37
2019-02-02T04:17:50.420Z,27.67
2019-02-02T04:20:22.398Z,26.37
2019-02-02T04:22:51.381Z,25.40
2019-02-02T04:25:21.067Z,29.23
2019-02-02T04:27:50.025Z,27.93
2019-02-02T04:30:20.917Z,27.33
2019-02-02T04:32:49.852Z,25.93
2019-02-02T04:35:18.498Z,27.37
2019-02-02T04:37:47.063Z,30.33
2019-02-02T04:40:15.660Z,29.80
2019-02-02T04:42:44.506Z,26.55
2019-02-02T04:45:13.658Z,31.40
2019-02-02T04:47:42.240Z,27.42
2019-02-02T04:50:12.783Z,30.20
2019-02-02T04:52:41.365Z,29.92
2019-02-02T04:55:10.634Z,32.30
2019-02-02T04:57:39.224Z,32.93
2019-02-02T05:00:34.325Z,30.07
2019-02-02T05:03:02.847Z,28.87
2019-02-02T05:05:31.487Z,31.70
2019-02-02T05:08:00.295Z,26.33
2019-02-02T05:10:28.864Z,29.10
2019-02-02T05:12:57.442Z,29.50
2019-02-02T05:15:26.070Z,33.27
2019-02-02T05:17:54.646Z,33.37
2019-02-02T05:20:23.198Z,35.53
2019-02-02T05:22:51.815Z,32.73
2019-02-02T05:25:20.561Z,36.97
2019-02-02T05:27:49.208Z,35.00
2019-02-02T05:30:23.392Z,31.10
2019-02-02T05:32:51.953Z,35.87
2019-02-02T05:35:20.843Z,28.43
2019-02-02T05:37:49.425Z,31.80
2019-02-02T05:40:18.655Z,35.17
2019-02-02T05:42:47.225Z,34.93
2019-02-02T05:45:17.225Z,30.80
2019-02-02T05:47:45.964Z,28.85
2019-02-02T05:50:16.626Z,30.83
2019-02-02T05:52:45.260Z,32.60
2019-02-02T05:55:14.593Z,29.47
2019-02-02T05:57:43.252Z,31.00
2019-02-02T06:00:16.555Z,35.33
2019-02-02T06:02:45.289Z,32.60
2019-02-02T06:05:13.876Z,33.40
2019-02-02T06:07:42.462Z,34.03
2019-02-02T06:10:12.859Z,32.13
2019-02-02T06:12:41.664Z,30.63
2019-02-02T06:15:10.577Z,42.33
2019-02-02T06:17:39.151Z,35.97
2019-02-02T06:20:09.347Z,33.80
2019-02-02T06:22:38.132Z,33.07
2019-02-02T06:25:08.156Z,31.83
2019-02-02T06:27:36.739Z,26.00
2019-02-02T06:30:07.436Z,27.37
2019-02-02T06:32:36.001Z,32.20
2019-02-02T06:35:05.340Z,49.87
2019-02-02T06:37:33.935Z,42.57
2019-02-02T06:40:02.538Z,35.17
2019-02-02T06:42:31.108Z,29.40
2019-02-02T06:44:59.713Z,28.10
2019-02-02T06:47:28.330Z,33.50
2019-02-02T06:49:57.046Z,29.23
2019-02-02T06:52:25.611Z,29.87
2019-02-02T06:54:54.193Z,25.47
2019-02-02T06:57:23.012Z,33.57
2019-02-02T06:59:51.612Z,31.93
2019-02-02T07:02:20.272Z,30.70
2019-02-02T07:04:48.832Z,36.13
2019-02-02T07:07:17.450Z,27.67
2019-02-02T07:09:46.044Z,28.23
2019-02-02T07:12:14.625Z,31.43
2019-02-02T07:14:43.203Z,30.80
2019-02-02T07:17:11.809Z,32.83
2019-02-02T07:19:40.499Z,35.07
2019-02-02T07:22:09.085Z,34.80
2019-02-02T07:24:37.660Z,37.10
2019-02-02T07:27:06.264Z,33.53
2019-02-02T07:29:34.926Z,33.90
2019-02-02T07:32:03.592Z,41.20
2019-02-02T07:34:32.175Z,36.03
2019-02-02T07:37:00.768Z,35.43
2019-02-02T07:39:29.340Z,35.73
2019-02-02T07:41:57.980Z,38.42
2019-02-02T07:44:26.836Z,38.45
2019-02-02T07:46:55.516Z,37.53
2019-02-02T07:49:24.596Z,35.77
2019-02-02T07:51:53.179Z,38.60
2019-02-02T07:54:21.967Z,39.15
2019-02-02T07:56:50.499Z,33.95
2019-02-02T07:59:19.108Z,32.50
2019-02-02T08:01:47.962Z,36.27
2019-02-02T08:04:16.773Z,38.30
2019-02-02T08:06:46.325Z,35.33
2019-02-02T08:09:15.091Z,40.83
2019-02-02T08:11:43.896Z,34.20
2019-02-02T08:14:12.779Z,39.27
2019-02-02T08:16:41.871Z,39.92
2019-02-02T08:19:11.448Z,35.40
2019-02-02T08:21:44.031Z,40.43
2019-02-02T08:24:13.972Z,35.60
2019-02-02T08:26:47.257Z,40.07
2019-02-02T08:29:16.833Z,37.93
2019-02-02T08:31:46.091Z,36.23
2019-02-02T08:34:15.767Z,34.60
2019-02-02T08:36:45.066Z,38.30
2019-02-02T08:39:13.632Z,41.97
2019-02-02T08:41:42.263Z,40.37
2019-02-02T08:44:10.853Z,43.35
2019-02-02T08:46:39.467Z,40.30
2019-02-02T08:49:08.088Z,45.20
2019-02-02T08:51:36.730Z,41.55
2019-02-02T08:54:05.377Z,41.42
2019-02-02T08:56:34.491Z,39.67
2019-02-02T08:59:03.056Z,40.15
2019-02-02T09:01:31.640Z,41.17
2019-02-02T09:04:00.273Z,40.30
2019-02-02T09:06:38.505Z,42.40
2019-02-02T09:08:59.139Z,42.30
2019-02-02T09:11:27.745Z,39.73
2019-02-02T09:13:56.371Z,37.33
2019-02-02T09:16:25.190Z,37.77
2019-02-02T09:18:54.133Z,39.43
2019-02-02T09:21:23.344Z,38.80
2019-02-02T09:23:52.064Z,33.63
2019-02-02T09:26:20.696Z,39.63
2019-02-02T09:28:49.379Z,38.30
2019-02-02T09:31:18.094Z,36.48
2019-02-02T09:33:46.953Z,39.53
2019-02-02T09:36:16.954Z,36.83
2019-02-02T09:38:45.749Z,36.40
2019-02-02T09:41:14.339Z,34.83
2019-02-02T09:43:43.251Z,35.08
2019-02-02T09:46:13.640Z,34.70
2019-02-02T09:48:42.447Z,34.40
2019-02-02T09:51:11.202Z,38.60
2019-02-02T09:53:39.937Z,29.90
2019-02-02T09:56:08.752Z,30.20
2019-02-02T09:58:37.415Z,29.57
2019-02-02T10:01:07.015Z,30.63
2019-02-02T10:03:35.605Z,28.10
2019-02-02T10:06:04.263Z,42.73
2019-02-02T10:08:32.882Z,35.97
2019-02-02T10:11:01.552Z,27.83
2019-02-02T10:13:30.230Z,31.47
2019-02-02T10:15:59.046Z,28.53
2019-02-02T10:21:33.399Z,26.20
2019-02-02T10:24:02.051Z,27.93
2019-02-02T10:26:30.852Z,24.63
2019-02-02T10:28:59.500Z,28.40
2019-02-02T10:31:38.864Z,26.67
2019-02-02T10:33:58.431Z,25.63
2019-02-02T10:36:27.118Z,22.47
2019-02-02T10:38:55.720Z,22.07
2019-02-02T10:41:24.482Z,18.80
2019-02-02T10:43:53.112Z,16.80
2019-02-02T10:46:21.801Z,18.70
2019-02-02T10:48:50.414Z,19.83
2019-02-02T10:51:19.223Z,18.43
2019-02-02T10:53:48.876Z,23.60
2019-02-02T10:56:17.521Z,25.37
2019-02-02T10:58:46.362Z,21.27
2019-02-02T11:01:15.065Z,22.90
2019-02-02T11:03:43.763Z,23.13
2019-02-02T11:06:12.435Z,27.67
2019-02-02T11:08:41.224Z,22.43
2019-02-02T11:11:10.023Z,23.17
2019-02-02T11:13:38.763Z,21.40
2019-02-02T11:16:08.365Z,22.30
2019-02-02T11:18:37.448Z,18.60
2019-02-02T11:21:06.231Z,21.20
2019-02-02T11:23:34.888Z,23.50
2019-02-02T11:26:03.626Z,21.60
2019-02-02T11:28:32.735Z,22.43
2019-02-02T11:31:01.451Z,21.23
2019-02-02T11:33:30.143Z,21.83
2019-02-02T11:35:58.995Z,18.83
2019-02-02T11:38:27.835Z,19.37
2019-02-02T11:40:56.420Z,21.03
2019-02-02T11:43:24.993Z,20.60
2019-02-02T11:45:53.561Z,16.57
2019-02-02T11:48:22.250Z,16.63
2019-02-02T11:50:50.843Z,21.47
2019-02-02T11:53:19.806Z,20.03
2019-02-02T11:55:48.347Z,23.90
2019-02-02T11:58:17.791Z,22.63
2019-02-02T12:00:46.403Z,20.87
2019-02-02T12:03:14.995Z,21.03
2019-02-02T12:05:43.674Z,22.13
2019-02-02T12:08:13.099Z,22.27
2019-02-02T12:10:41.666Z,20.87
2019-02-02T12:13:10.353Z,17.73
2019-02-02T12:15:38.968Z,18.10
2019-02-02T12:18:07.918Z,20.70
2019-02-02T12:20:36.587Z,21.07
2019-02-02T12:23:05.454Z,21.67
2019-02-02T12:25:34.342Z,24.93
2019-02-02T12:28:03.179Z,23.50
2019-02-02T12:30:33.431Z,25.87
2019-02-02T12:33:04.818Z,26.80
2019-02-02T12:35:33.581Z,25.07
2019-02-02T12:38:02.469Z,24.53
2019-02-02T12:40:31.470Z,25.53
2019-02-02T12:43:00.363Z,21.00
2019-02-02T12:45:54.137Z,16.70
2019-02-02T12:48:23.691Z,19.73
2019-02-02T12:50:52.753Z,14.20
2019-02-02T12:53:21.366Z,14.87
2019-02-02T12:55:50.413Z,20.77
2019-02-02T12:58:19.071Z,14.17
2019-02-02T13:00:47.660Z,10.70
2019-02-02T13:03:16.497Z,14.43
2019-02-02T13:05:45.264Z,26.97
2019-02-02T13:08:14.185Z,29.97
2019-02-02T13:10:42.810Z,25.33
2019-02-02T13:13:11.445Z,28.60
2019-02-02T13:15:40.223Z,37.03
2019-02-02T13:18:08.932Z,34.10
2019-02-02T13:20:37.658Z,30.00
2019-02-02T13:23:06.456Z,23.57
2019-02-02T13:25:35.011Z,24.03
2019-02-02T13:28:03.646Z,26.60
2019-02-02T13:30:33.933Z,29.30
2019-02-02T13:33:02.592Z,32.20
2019-02-02T13:35:32.860Z,26.40
2019-02-02T13:38:01.475Z,27.07
2019-02-02T13:40:30.036Z,28.50
2019-02-02T13:42:58.741Z,25.87
2019-02-02T13:45:27.296Z,22.60
2019-02-02T13:47:56.518Z,22.00
2019-02-02T13:50:25.206Z,21.20
2019-02-02T13:52:54.159Z,21.40
2019-02-02T13:55:22.701Z,21.10
2019-02-02T13:57:51.319Z,21.43
2019-02-02T14:00:22.269Z,26.30
2019-02-02T14:03:02.092Z,22.40
2019-02-02T14:05:21.930Z,21.80
2019-02-02T14:07:50.503Z,20.27
2019-02-02T14:10:21.328Z,17.37
2019-02-02T14:12:50.297Z,20.00
2019-02-02T14:15:19.083Z,23.47
2019-02-02T14:17:48.273Z,19.87
2019-02-02T14:20:16.939Z,19.80
2019-02-02T14:22:45.791Z,21.20
2019-02-02T14:25:14.618Z,21.67
2019-02-02T14:27:43.541Z,18.80
2019-02-02T14:30:22.789Z,18.60
2019-02-02T14:32:54.427Z,19.47
2019-02-02T14:35:29.618Z,18.73
2019-02-02T14:37:58.188Z,19.33
2019-02-02T14:40:26.749Z,20.60
2019-02-02T14:42:55.328Z,18.77
2019-02-02T14:45:27.301Z,20.80
2019-02-02T14:47:55.907Z,19.47
2019-02-02T14:50:25.070Z,19.80
2019-02-02T14:52:55.036Z,24.63
2019-02-02T14:55:25.504Z,25.53
2019-02-02T14:57:54.453Z,16.63
2019-02-02T15:00:25.054Z,25.33
2019-02-02T15:02:53.803Z,15.90
2019-02-02T15:05:22.569Z,16.93
2019-02-02T15:07:51.239Z,16.40
2019-02-02T15:10:20.778Z,16.10
2019-02-02T15:12:49.537Z,18.23
2019-02-02T15:15:18.700Z,24.40
2019-02-02T15:17:47.376Z,20.67
2019-02-02T15:20:28.170Z,20.60
2019-02-02T15:22:56.700Z,21.47
2019-02-02T15:25:30.903Z,27.27
2019-02-02T15:27:59.530Z,26.43
2019-02-02T15:30:28.946Z,29.57
2019-02-02T15:32:57.635Z,31.73
2019-02-02T15:35:26.292Z,30.83
2019-02-02T15:37:54.940Z,31.20
2019-02-02T15:40:23.585Z,33.17
2019-02-02T15:42:52.146Z,33.53
2019-02-02T15:45:22.141Z,32.43
2019-02-02T15:47:50.813Z,34.37
2019-02-02T15:50:19.453Z,32.83
2019-02-02T15:52:48.128Z,37.35
2019-02-02T15:55:21.434Z,35.70
2019-02-02T15:57:50.107Z,38.33
2019-02-02T16:00:38.079Z,40.30
2019-02-02T16:03:07.080Z,45.58
2019-02-02T16:05:36.572Z,41.47
2019-02-02T16:08:16.390Z,43.90
2019-02-02T16:10:45.006Z,51.53
2019-02-02T16:13:13.825Z,46.10
2019-02-02T16:15:42.445Z,41.03
2019-02-02T16:18:11.014Z,47.60
2019-02-02T16:20:42.265Z,45.07
2019-02-02T16:23:11.149Z,46.87
2019-02-02T16:25:39.731Z,50.15
2019-02-02T16:28:08.483Z,53.70
2019-02-02T16:30:37.135Z,51.00
2019-02-02T16:33:06.199Z,55.78
2019-02-02T16:35:34.778Z,55.17
2019-02-02T16:38:03.367Z,55.75
2019-02-02T16:40:32.144Z,49.58
2019-02-02T16:43:00.757Z,56.18
2019-02-02T16:45:30.302Z,60.08
2019-02-02T16:47:59.237Z,57.58
2019-02-02T16:50:28.079Z,58.13
2019-02-02T16:52:56.644Z,55.23
2019-02-02T16:55:25.426Z,56.63
2019-02-02T16:57:54.227Z,59.48
2019-02-02T17:00:27.808Z,55.30
2019-02-02T17:02:56.432Z,59.60
2019-02-02T17:05:25.131Z,62.03
2019-02-02T17:07:54.859Z,50.83
2019-02-02T17:10:25.600Z,47.73
2019-02-02T17:12:54.248Z,48.33
2019-02-02T17:15:23.048Z,46.10
2019-02-02T17:17:51.965Z,42.15
2019-02-02T17:20:25.791Z,32.17
2019-02-02T17:22:54.401Z,38.20
2019-02-02T17:25:23.298Z,38.07
2019-02-02T17:27:52.037Z,47.83
2019-02-02T17:30:21.909Z,41.85
2019-02-02T17:32:51.750Z,43.43
2019-02-02T17:35:20.431Z,47.27
2019-02-02T17:37:49.082Z,47.67
2019-02-02T17:40:19.885Z,43.85
2019-02-02T17:42:48.458Z,52.10
2019-02-02T17:45:17.937Z,52.30
2019-02-02T17:47:46.639Z,53.42
2019-02-02T17:50:17.083Z,51.83
2019-02-02T17:52:45.742Z,51.02
2019-02-02T17:55:14.534Z,48.10
2019-02-02T17:57:43.199Z,43.58
2019-02-02T18:00:21.903Z,44.48
2019-02-02T18:02:50.484Z,48.75
2019-02-02T18:05:19.099Z,42.00
2019-02-02T18:07:47.678Z,39.27
2019-02-02T18:10:16.506Z,45.67
2019-02-02T18:12:45.375Z,49.38
2019-02-02T18:15:14.271Z,42.80
2019-02-02T18:17:43.026Z,39.25
2019-02-02T18:20:13.209Z,40.48
2019-02-02T18:22:42.059Z,40.25
2019-02-02T18:25:11.882Z,40.80
2019-02-02T18:27:40.850Z,46.92
2019-02-02T18:30:15.585Z,43.65
2019-02-02T18:32:44.207Z,40.50
2019-02-02T18:35:14.481Z,45.92
2019-02-02T18:37:43.103Z,39.98
2019-02-02T18:40:13.084Z,35.90
2019-02-02T18:42:41.692Z,35.13
2019-02-02T18:45:12.553Z,36.77
2019-02-02T18:47:41.192Z,40.83
2019-02-02T18:50:11.927Z,35.92
2019-02-02T18:52:40.587Z,34.00
2019-02-02T18:55:11.984Z,36.08
2019-02-02T18:57:40.586Z,37.17
2019-02-02T19:00:12.940Z,33.23
2019-02-02T19:02:42.554Z,42.98
2019-02-02T19:05:11.276Z,35.63
2019-02-02T19:07:40.126Z,31.52
2019-02-02T19:10:12.157Z,32.67
2019-02-02T19:12:40.824Z,31.80
2019-02-02T19:15:09.843Z,33.30
2019-02-02T19:17:38.430Z,32.55
2019-02-02T19:20:09.193Z,31.07
2019-02-02T19:22:37.802Z,36.20
2019-02-02T19:25:07.161Z,31.35
2019-02-02T19:27:35.750Z,32.20
2019-02-02T19:30:06.326Z,34.75
2019-02-02T19:32:35.133Z,36.03
2019-02-02T19:35:15.254Z,33.00
2019-02-02T19:37:34.519Z,32.80
2019-02-02T19:40:03.243Z,33.02
2019-02-02T19:42:31.835Z,36.35
2019-02-02T19:45:00.416Z,49.03
2019-02-02T19:47:29.040Z,36.55
2019-02-02T19:49:57.604Z,34.35
2019-02-02T19:52:26.197Z,35.03
2019-02-02T19:54:54.762Z,37.63
2019-02-02T19:57:23.366Z,37.38
2019-02-02T19:59:51.943Z,40.20
2019-02-02T20:02:20.535Z,35.45
2019-02-02T20:04:49.141Z,34.10
2019-02-02T20:07:17.728Z,36.20
2019-02-02T20:09:46.339Z,38.40
2019-02-02T20:12:14.969Z,33.90
2019-02-02T20:14:43.638Z,37.42
2019-02-02T20:17:14.571Z,38.78
2019-02-02T20:19:42.686Z,49.03
2019-02-02T20:22:11.278Z,51.75
2019-02-02T20:24:39.898Z,55.83
2019-02-02T20:27:08.480Z,56.70
2019-02-02T20:29:37.069Z,67.35
2019-02-02T20:32:05.687Z,72.82
2019-02-02T20:34:34.248Z,75.30
2019-02-02T20:37:02.843Z,68.65
2019-02-02T20:39:31.438Z,66.05
2019-02-02T20:42:00.094Z,64.20
2019-02-02T20:44:28.670Z,69.62
2019-02-02T20:46:57.265Z,79.10
2019-02-02T20:49:25.840Z,70.22
2019-02-02T20:51:54.462Z,71.15
2019-02-02T20:54:23.375Z,69.22
2019-02-02T20:56:52.206Z,76.82
2019-02-02T20:59:21.995Z,68.75
2019-02-02T21:01:50.639Z,91.08
2019-02-02T21:04:19.225Z,73.72
2019-02-02T21:06:48.027Z,69.77
2019-02-02T21:09:16.670Z,73.70
2019-02-02T21:11:56.398Z,77.85
2019-02-02T21:14:15.935Z,84.10
2019-02-02T21:16:44.606Z,90.90
2019-02-02T21:19:13.189Z,88.25
2019-02-02T21:21:42.644Z,91.78
2019-02-02T21:24:11.278Z,102.47
2019-02-02T21:26:41.330Z,92.67
2019-02-02T21:29:09.964Z,102.58
2019-02-02T21:31:38.638Z,100.67
2019-02-02T21:34:07.333Z,127.85
2019-02-02T21:36:35.909Z,108.32
2019-02-02T21:39:07.152Z,143.50
2019-02-02T21:41:35.750Z,192.13
2019-02-02T21:44:04.355Z,221.00
2019-02-02T21:46:33.153Z,176.97
2019-02-02T21:49:02.102Z,207.40
2019-02-02T21:51:30.806Z,165.45
2019-02-02T21:53:59.382Z,182.22
2019-02-02T21:56:27.973Z,179.87
2019-02-02T21:58:56.734Z,171.93
2019-02-02T22:01:25.321Z,160.03
2019-02-02T22:03:53.919Z,162.97
2019-02-02T22:06:22.546Z,168.10
2019-02-02T22:08:51.123Z,217.60
2019-02-02T22:11:19.750Z,189.95
2019-02-02T22:13:48.367Z,151.97
2019-02-02T22:16:17.050Z,149.75
2019-02-02T22:18:45.624Z,146.30
2019-02-02T22:21:14.441Z,138.50
2019-02-02T22:23:43.052Z,142.93
2019-02-02T22:26:11.755Z,138.00
2019-02-02T22:28:40.292Z,147.37
2019-02-02T22:31:09.217Z,145.43
2019-02-02T22:33:37.818Z,140.18
2019-02-02T22:36:06.712Z,150.57
2019-02-02T22:38:35.321Z,171.00
2019-02-02T22:41:06.887Z,154.72
2019-02-02T22:43:34.396Z,149.23
2019-02-02T22:46:03.147Z,163.52
2019-02-02T22:48:31.721Z,145.28
2019-02-02T22:51:00.294Z,161.32
2019-02-02T22:53:28.907Z,165.45
2019-02-02T22:55:57.713Z,151.57
2019-02-02T22:58:26.658Z,151.20
2019-02-02T23:01:27.728Z,154.50
2019-02-02T23:04:14.520Z,165.90
2019-02-02T23:07:33.560Z,173.65
2019-02-02T23:10:51.587Z,187.80
2019-02-02T23:14:06.160Z,178.32
2019-02-02T23:16:35.373Z,213.15
2019-02-02T23:19:04.046Z,283.50
2019-02-02T23:21:32.848Z,274.27
2019-02-02T23:24:01.524Z,351.48
2019-02-02T23:26:30.254Z,283.20
2019-02-02T23:28:58.826Z,245.45
2019-02-02T23:31:27.424Z,386.80
2019-02-02T23:33:56.003Z,399.00
2019-02-02T23:36:24.675Z,371.73
2019-02-02T23:38:53.318Z,352.07
2019-02-02T23:41:22.742Z,408.45
2019-02-02T23:43:51.569Z,362.12
2019-02-02T23:46:20.128Z,329.38
2019-02-02T23:48:48.817Z,419.95
2019-02-02T23:51:17.360Z,313.95
2019-02-02T23:53:45.956Z,270.12
2019-02-02T23:56:14.559Z,256.77
2019-02-02T23:58:43.413Z,277.85
